sensor_id;sensor_type;location;lat;lon;timestamp;P1;durP1;ratioP1;P2;durP2;ratioP2
29294;SDS011;16305;48.566;8.846;2023-04-03T00:01:31;9.20;;;5.27;;
29294;SDS011;16305;48.566;8.846;2023-04-03T00:03:57;5.43;;;4.93;;
29294;SDS011;16305;48.566;8.846;2023-04-03T00:06:23;6.70;;;5.13;;
29294;SDS011;16305;48.566;8.846;2023-04-03T00:08:50;7.10;;;5.00;;
29294;SDS011;16305;48.566;8.846;2023-04-03T00:11:16;7.53;;;5.90;;
29294;SDS011;16305;48.566;8.846;2023-04-03T00:13:42;7.40;;;5.57;;
29294;SDS011;16305;48.566;8.846;2023-04-03T00:16:08;5.73;;;5.10;;
29294;SDS011;16305;48.566;8.846;2023-04-03T00:18:34;8.00;;;5.40;;
29294;SDS011;16305;48.566;8.846;2023-04-03T00:21:00;6.90;;;5.77;;
29294;SDS011;16305;48.566;8.846;2023-04-03T00:23:26;9.00;;;5.87;;
29294;SDS011;16305;48.566;8.846;2023-04-03T00:25:53;6.60;;;5.10;;
29294;SDS011;16305;48.566;8.846;2023-04-03T00:28:19;6.20;;;5.07;;
29294;SDS011;16305;48.566;8.846;2023-04-03T00:30:45;5.63;;;5.00;;
29294;SDS011;16305;48.566;8.846;2023-04-03T00:33:13;6.43;;;5.10;;
29294;SDS011;16305;48.566;8.846;2023-04-03T00:35:39;5.97;;;5.37;;
29294;SDS011;16305;48.566;8.846;2023-04-03T00:38:05;5.77;;;5.17;;
29294;SDS011;16305;48.566;8.846;2023-04-03T00:40:35;5.73;;;4.93;;
29294;SDS011;16305;48.566;8.846;2023-04-03T00:43:01;6.00;;;5.40;;
29294;SDS011;16305;48.566;8.846;2023-04-03T00:47:58;7.17;;;5.50;;
29294;SDS011;16305;48.566;8.846;2023-04-03T00:50:26;6.53;;;5.03;;
29294;SDS011;16305;48.566;8.846;2023-04-03T00:52:53;7.33;;;5.17;;
29294;SDS011;16305;48.566;8.846;2023-04-03T00:55:20;6.57;;;5.30;;
29294;SDS011;16305;48.566;8.846;2023-04-03T00:57:45;7.20;;;5.17;;
29294;SDS011;16305;48.566;8.846;2023-04-03T01:00:13;7.43;;;5.07;;
29294;SDS011;16305;48.566;8.846;2023-04-03T01:02:42;6.50;;;5.30;;
29294;SDS011;16305;48.566;8.846;2023-04-03T01:05:07;7.37;;;5.00;;
29294;SDS011;16305;48.566;8.846;2023-04-03T01:07:34;7.50;;;5.43;;
29294;SDS011;16305;48.566;8.846;2023-04-03T01:10:02;9.07;;;4.83;;
29294;SDS011;16305;48.566;8.846;2023-04-03T01:12:32;7.13;;;5.03;;
29294;SDS011;16305;48.566;8.846;2023-04-03T01:15:22;5.60;;;5.07;;
29294;SDS011;16305;48.566;8.846;2023-04-03T01:17:55;6.43;;;5.47;;
29294;SDS011;16305;48.566;8.846;2023-04-03T01:25:39;6.73;;;5.10;;
29294;SDS011;16305;48.566;8.846;2023-04-03T01:28:13;6.50;;;5.07;;
29294;SDS011;16305;48.566;8.846;2023-04-03T01:33:30;6.87;;;5.30;;
29294;SDS011;16305;48.566;8.846;2023-04-03T01:35:55;6.07;;;5.00;;
29294;SDS011;16305;48.566;8.846;2023-04-03T01:38:21;5.73;;;5.10;;
29294;SDS011;16305;48.566;8.846;2023-04-03T01:40:47;5.87;;;4.97;;
29294;SDS011;16305;48.566;8.846;2023-04-03T01:43:12;7.07;;;5.27;;
29294;SDS011;16305;48.566;8.846;2023-04-03T01:45:38;8.57;;;5.57;;
29294;SDS011;16305;48.566;8.846;2023-04-03T01:48:04;8.03;;;5.57;;
29294;SDS011;16305;48.566;8.846;2023-04-03T01:50:30;6.80;;;4.97;;
29294;SDS011;16305;48.566;8.846;2023-04-03T01:52:55;4.93;;;4.43;;
29294;SDS011;16305;48.566;8.846;2023-04-03T01:55:21;6.93;;;5.20;;
29294;SDS011;16305;48.566;8.846;2023-04-03T01:57:46;5.90;;;4.77;;
29294;SDS011;16305;48.566;8.846;2023-04-03T02:00:12;5.87;;;4.80;;
29294;SDS011;16305;48.566;8.846;2023-04-03T02:02:38;8.60;;;5.07;;
29294;SDS011;16305;48.566;8.846;2023-04-03T02:05:04;6.30;;;5.27;;
29294;SDS011;16305;48.566;8.846;2023-04-03T02:07:30;6.27;;;5.03;;
29294;SDS011;16305;48.566;8.846;2023-04-03T02:09:55;6.27;;;5.00;;
29294;SDS011;16305;48.566;8.846;2023-04-03T02:12:21;5.93;;;4.90;;
29294;SDS011;16305;48.566;8.846;2023-04-03T02:14:46;6.23;;;5.13;;
29294;SDS011;16305;48.566;8.846;2023-04-03T02:17:12;8.13;;;4.43;;
29294;SDS011;16305;48.566;8.846;2023-04-03T02:19:38;6.27;;;5.07;;
29294;SDS011;16305;48.566;8.846;2023-04-03T02:22:04;5.60;;;5.10;;
29294;SDS011;16305;48.566;8.846;2023-04-03T02:24:30;5.93;;;4.70;;
29294;SDS011;16305;48.566;8.846;2023-04-03T02:26:56;7.27;;;5.47;;
29294;SDS011;16305;48.566;8.846;2023-04-03T02:29:22;5.00;;;4.50;;
29294;SDS011;16305;48.566;8.846;2023-04-03T02:31:48;6.17;;;4.70;;
29294;SDS011;16305;48.566;8.846;2023-04-03T02:34:14;5.97;;;4.93;;
29294;SDS011;16305;48.566;8.846;2023-04-03T02:36:39;6.23;;;5.13;;
29294;SDS011;16305;48.566;8.846;2023-04-03T02:39:05;6.20;;;4.60;;
29294;SDS011;16305;48.566;8.846;2023-04-03T02:41:31;7.83;;;4.80;;
29294;SDS011;16305;48.566;8.846;2023-04-03T02:44:03;5.33;;;4.83;;
29294;SDS011;16305;48.566;8.846;2023-04-03T02:46:30;7.40;;;4.60;;
29294;SDS011;16305;48.566;8.846;2023-04-03T02:48:56;5.67;;;4.07;;
29294;SDS011;16305;48.566;8.846;2023-04-03T02:51:22;5.50;;;4.63;;
29294;SDS011;16305;48.566;8.846;2023-04-03T02:53:50;7.47;;;4.73;;
29294;SDS011;16305;48.566;8.846;2023-04-03T02:56:16;6.67;;;4.77;;
29294;SDS011;16305;48.566;8.846;2023-04-03T02:58:43;6.20;;;4.37;;
29294;SDS011;16305;48.566;8.846;2023-04-03T03:01:09;5.47;;;4.70;;
29294;SDS011;16305;48.566;8.846;2023-04-03T03:03:35;6.57;;;5.10;;
29294;SDS011;16305;48.566;8.846;2023-04-03T03:06:02;6.23;;;4.90;;
29294;SDS011;16305;48.566;8.846;2023-04-03T03:08:34;5.17;;;4.53;;
29294;SDS011;16305;48.566;8.846;2023-04-03T03:11:00;6.03;;;4.50;;
29294;SDS011;16305;48.566;8.846;2023-04-03T03:13:26;6.17;;;5.50;;
29294;SDS011;16305;48.566;8.846;2023-04-03T03:15:52;5.43;;;4.60;;
29294;SDS011;16305;48.566;8.846;2023-04-03T03:18:18;7.13;;;4.87;;
29294;SDS011;16305;48.566;8.846;2023-04-03T03:20:43;5.67;;;4.90;;
29294;SDS011;16305;48.566;8.846;2023-04-03T03:23:09;6.13;;;4.13;;
29294;SDS011;16305;48.566;8.846;2023-04-03T03:25:38;7.03;;;4.07;;
29294;SDS011;16305;48.566;8.846;2023-04-03T03:28:05;5.37;;;4.73;;
29294;SDS011;16305;48.566;8.846;2023-04-03T03:30:30;5.70;;;5.00;;
29294;SDS011;16305;48.566;8.846;2023-04-03T03:32:56;5.53;;;4.33;;
29294;SDS011;16305;48.566;8.846;2023-04-03T03:35:21;6.40;;;5.17;;
29294;SDS011;16305;48.566;8.846;2023-04-03T03:37:47;9.07;;;4.93;;
29294;SDS011;16305;48.566;8.846;2023-04-03T03:40:12;6.27;;;4.57;;
29294;SDS011;16305;48.566;8.846;2023-04-03T03:42:38;6.17;;;4.63;;
29294;SDS011;16305;48.566;8.846;2023-04-03T03:45:04;5.40;;;4.50;;
29294;SDS011;16305;48.566;8.846;2023-04-03T03:47:30;6.17;;;5.03;;
29294;SDS011;16305;48.566;8.846;2023-04-03T03:49:56;6.87;;;4.77;;
29294;SDS011;16305;48.566;8.846;2023-04-03T03:52:21;7.13;;;4.83;;
29294;SDS011;16305;48.566;8.846;2023-04-03T03:54:47;7.43;;;4.10;;
29294;SDS011;16305;48.566;8.846;2023-04-03T03:57:12;8.30;;;4.77;;
29294;SDS011;16305;48.566;8.846;2023-04-03T03:59:38;5.60;;;4.90;;
29294;SDS011;16305;48.566;8.846;2023-04-03T04:02:05;5.90;;;4.50;;
29294;SDS011;16305;48.566;8.846;2023-04-03T04:04:30;5.47;;;4.23;;
29294;SDS011;16305;48.566;8.846;2023-04-03T04:06:56;5.00;;;4.50;;
29294;SDS011;16305;48.566;8.846;2023-04-03T04:09:21;5.13;;;4.30;;
29294;SDS011;16305;48.566;8.846;2023-04-03T04:11:47;5.73;;;4.77;;
29294;SDS011;16305;48.566;8.846;2023-04-03T04:14:12;6.53;;;4.40;;
29294;SDS011;16305;48.566;8.846;2023-04-03T04:16:38;6.10;;;4.80;;
29294;SDS011;16305;48.566;8.846;2023-04-03T04:19:03;5.47;;;4.30;;
29294;SDS011;16305;48.566;8.846;2023-04-03T04:21:29;6.43;;;4.67;;
29294;SDS011;16305;48.566;8.846;2023-04-03T04:23:55;5.43;;;4.70;;
29294;SDS011;16305;48.566;8.846;2023-04-03T04:26:20;8.33;;;4.90;;
29294;SDS011;16305;48.566;8.846;2023-04-03T04:28:46;6.77;;;4.37;;
29294;SDS011;16305;48.566;8.846;2023-04-03T04:31:11;5.40;;;4.57;;
29294;SDS011;16305;48.566;8.846;2023-04-03T04:33:37;8.73;;;5.10;;
29294;SDS011;16305;48.566;8.846;2023-04-03T04:36:02;5.40;;;4.50;;
29294;SDS011;16305;48.566;8.846;2023-04-03T04:38:28;4.80;;;4.30;;
29294;SDS011;16305;48.566;8.846;2023-04-03T04:40:53;6.53;;;4.53;;
29294;SDS011;16305;48.566;8.846;2023-04-03T04:43:19;9.40;;;5.00;;
29294;SDS011;16305;48.566;8.846;2023-04-03T04:45:45;4.90;;;4.03;;
29294;SDS011;16305;48.566;8.846;2023-04-03T04:48:10;5.20;;;4.60;;
29294;SDS011;16305;48.566;8.846;2023-04-03T04:50:36;6.63;;;4.63;;
29294;SDS011;16305;48.566;8.846;2023-04-03T04:53:01;7.00;;;4.33;;
29294;SDS011;16305;48.566;8.846;2023-04-03T04:55:27;5.10;;;4.57;;
29294;SDS011;16305;48.566;8.846;2023-04-03T04:57:52;6.17;;;4.70;;
29294;SDS011;16305;48.566;8.846;2023-04-03T05:00:18;6.57;;;4.73;;
29294;SDS011;16305;48.566;8.846;2023-04-03T05:02:44;5.33;;;4.13;;
29294;SDS011;16305;48.566;8.846;2023-04-03T05:05:09;7.80;;;4.60;;
29294;SDS011;16305;48.566;8.846;2023-04-03T05:07:35;5.17;;;4.23;;
29294;SDS011;16305;48.566;8.846;2023-04-03T05:10:01;4.83;;;4.20;;
29294;SDS011;16305;48.566;8.846;2023-04-03T05:12:27;5.90;;;4.37;;
29294;SDS011;16305;48.566;8.846;2023-04-03T05:14:53;5.93;;;4.50;;
29294;SDS011;16305;48.566;8.846;2023-04-03T05:17:18;6.87;;;4.60;;
29294;SDS011;16305;48.566;8.846;2023-04-03T05:19:44;7.70;;;5.33;;
29294;SDS011;16305;48.566;8.846;2023-04-03T05:22:10;5.40;;;4.27;;
29294;SDS011;16305;48.566;8.846;2023-04-03T05:24:35;5.47;;;4.30;;
29294;SDS011;16305;48.566;8.846;2023-04-03T05:27:01;4.47;;;4.07;;
29294;SDS011;16305;48.566;8.846;2023-04-03T05:29:26;5.20;;;4.67;;
29294;SDS011;16305;48.566;8.846;2023-04-03T05:31:52;5.97;;;4.70;;
29294;SDS011;16305;48.566;8.846;2023-04-03T05:34:17;4.63;;;4.13;;
29294;SDS011;16305;48.566;8.846;2023-04-03T05:36:43;5.30;;;4.50;;
29294;SDS011;16305;48.566;8.846;2023-04-03T05:39:09;6.30;;;4.73;;
29294;SDS011;16305;48.566;8.846;2023-04-03T05:41:34;6.50;;;5.03;;
29294;SDS011;16305;48.566;8.846;2023-04-03T05:44:00;6.93;;;4.50;;
29294;SDS011;16305;48.566;8.846;2023-04-03T05:46:25;5.67;;;4.50;;
29294;SDS011;16305;48.566;8.846;2023-04-03T05:48:51;5.57;;;4.57;;
29294;SDS011;16305;48.566;8.846;2023-04-03T05:51:18;5.97;;;4.33;;
29294;SDS011;16305;48.566;8.846;2023-04-03T05:53:46;4.33;;;3.93;;
29294;SDS011;16305;48.566;8.846;2023-04-03T05:56:12;5.37;;;3.93;;
29294;SDS011;16305;48.566;8.846;2023-04-03T05:58:38;6.70;;;4.57;;
29294;SDS011;16305;48.566;8.846;2023-04-03T06:01:04;6.20;;;4.17;;
29294;SDS011;16305;48.566;8.846;2023-04-03T06:03:30;5.47;;;4.30;;
29294;SDS011;16305;48.566;8.846;2023-04-03T06:05:56;4.93;;;3.80;;
29294;SDS011;16305;48.566;8.846;2023-04-03T06:08:22;7.47;;;4.53;;
29294;SDS011;16305;48.566;8.846;2023-04-03T06:10:48;6.63;;;4.07;;
29294;SDS011;16305;48.566;8.846;2023-04-03T06:13:15;5.00;;;4.30;;
29294;SDS011;16305;48.566;8.846;2023-04-03T06:15:40;4.23;;;3.50;;
29294;SDS011;16305;48.566;8.846;2023-04-03T06:18:06;4.30;;;3.40;;
29294;SDS011;16305;48.566;8.846;2023-04-03T06:20:33;4.17;;;3.60;;
29294;SDS011;16305;48.566;8.846;2023-04-03T06:22:58;5.10;;;3.33;;
29294;SDS011;16305;48.566;8.846;2023-04-03T06:25:24;3.67;;;3.30;;
29294;SDS011;16305;48.566;8.846;2023-04-03T06:27:50;3.00;;;2.70;;
29294;SDS011;16305;48.566;8.846;2023-04-03T06:30:15;3.60;;;3.07;;
29294;SDS011;16305;48.566;8.846;2023-04-03T06:32:41;4.07;;;3.20;;
29294;SDS011;16305;48.566;8.846;2023-04-03T06:35:07;5.10;;;3.10;;
29294;SDS011;16305;48.566;8.846;2023-04-03T06:37:33;4.67;;;2.97;;
29294;SDS011;16305;48.566;8.846;2023-04-03T06:39:59;2.97;;;2.67;;
29294;SDS011;16305;48.566;8.846;2023-04-03T06:42:25;5.53;;;2.90;;
29294;SDS011;16305;48.566;8.846;2023-04-03T06:44:51;2.50;;;2.30;;
29294;SDS011;16305;48.566;8.846;2023-04-03T06:47:16;2.97;;;2.70;;
29294;SDS011;16305;48.566;8.846;2023-04-03T06:49:42;3.10;;;2.80;;
29294;SDS011;16305;48.566;8.846;2023-04-03T06:52:09;3.93;;;3.10;;
29294;SDS011;16305;48.566;8.846;2023-04-03T06:54:34;5.03;;;2.73;;
29294;SDS011;16305;48.566;8.846;2023-04-03T06:57:00;3.33;;;3.03;;
29294;SDS011;16305;48.566;8.846;2023-04-03T06:59:26;4.43;;;3.37;;
29294;SDS011;16305;48.566;8.846;2023-04-03T07:01:52;4.57;;;3.10;;
29294;SDS011;16305;48.566;8.846;2023-04-03T07:04:18;3.23;;;2.93;;
29294;SDS011;16305;48.566;8.846;2023-04-03T07:06:45;6.20;;;3.70;;
29294;SDS011;16305;48.566;8.846;2023-04-03T07:09:11;4.53;;;3.60;;
29294;SDS011;16305;48.566;8.846;2023-04-03T07:11:37;4.63;;;3.17;;
29294;SDS011;16305;48.566;8.846;2023-04-03T07:14:03;3.80;;;3.40;;
29294;SDS011;16305;48.566;8.846;2023-04-03T07:16:28;5.93;;;3.00;;
29294;SDS011;16305;48.566;8.846;2023-04-03T07:18:57;3.93;;;3.33;;
29294;SDS011;16305;48.566;8.846;2023-04-03T07:21:23;3.90;;;3.37;;
29294;SDS011;16305;48.566;8.846;2023-04-03T07:23:49;3.77;;;3.27;;
29294;SDS011;16305;48.566;8.846;2023-04-03T07:26:15;6.30;;;3.43;;
29294;SDS011;16305;48.566;8.846;2023-04-03T07:28:40;3.43;;;3.10;;
29294;SDS011;16305;48.566;8.846;2023-04-03T07:31:07;3.37;;;3.07;;
29294;SDS011;16305;48.566;8.846;2023-04-03T07:33:36;4.27;;;3.10;;
29294;SDS011;16305;48.566;8.846;2023-04-03T07:36:02;3.87;;;2.87;;
29294;SDS011;16305;48.566;8.846;2023-04-03T07:38:29;3.87;;;3.10;;
29294;SDS011;16305;48.566;8.846;2023-04-03T07:40:54;3.93;;;3.30;;
29294;SDS011;16305;48.566;8.846;2023-04-03T07:43:20;4.57;;;3.07;;
29294;SDS011;16305;48.566;8.846;2023-04-03T07:45:47;3.50;;;3.10;;
29294;SDS011;16305;48.566;8.846;2023-04-03T07:48:16;3.43;;;3.13;;
29294;SDS011;16305;48.566;8.846;2023-04-03T07:50:43;4.00;;;3.53;;
29294;SDS011;16305;48.566;8.846;2023-04-03T07:53:09;3.83;;;3.23;;
29294;SDS011;16305;48.566;8.846;2023-04-03T07:55:34;5.03;;;3.77;;
29294;SDS011;16305;48.566;8.846;2023-04-03T07:58:07;4.53;;;3.17;;
29294;SDS011;16305;48.566;8.846;2023-04-03T08:00:37;3.53;;;2.93;;
29294;SDS011;16305;48.566;8.846;2023-04-03T08:03:03;4.53;;;3.20;;
29294;SDS011;16305;48.566;8.846;2023-04-03T08:05:29;3.83;;;3.13;;
29294;SDS011;16305;48.566;8.846;2023-04-03T08:07:55;5.30;;;3.30;;
29294;SDS011;16305;48.566;8.846;2023-04-03T08:10:21;4.30;;;3.13;;
29294;SDS011;16305;48.566;8.846;2023-04-03T08:12:47;3.70;;;3.40;;
29294;SDS011;16305;48.566;8.846;2023-04-03T08:15:13;5.50;;;3.60;;
29294;SDS011;16305;48.566;8.846;2023-04-03T08:17:39;3.43;;;2.83;;
29294;SDS011;16305;48.566;8.846;2023-04-03T08:20:05;3.90;;;3.50;;
29294;SDS011;16305;48.566;8.846;2023-04-03T08:22:33;5.40;;;3.20;;
29294;SDS011;16305;48.566;8.846;2023-04-03T08:24:58;4.13;;;3.00;;
29294;SDS011;16305;48.566;8.846;2023-04-03T08:27:25;3.63;;;2.97;;
29294;SDS011;16305;48.566;8.846;2023-04-03T08:29:51;2.93;;;2.63;;
29294;SDS011;16305;48.566;8.846;2023-04-03T08:32:17;3.77;;;3.37;;
29294;SDS011;16305;48.566;8.846;2023-04-03T08:34:43;3.43;;;3.10;;
29294;SDS011;16305;48.566;8.846;2023-04-03T08:37:08;5.07;;;2.70;;
29294;SDS011;16305;48.566;8.846;2023-04-03T08:39:34;3.07;;;2.73;;
29294;SDS011;16305;48.566;8.846;2023-04-03T08:42:02;3.20;;;2.70;;
29294;SDS011;16305;48.566;8.846;2023-04-03T08:49:53;1.83;;;1.73;;
29294;SDS011;16305;48.566;8.846;2023-04-03T08:58:00;3.33;;;2.40;;
29294;SDS011;16305;48.566;8.846;2023-04-03T09:00:37;3.60;;;2.60;;
29294;SDS011;16305;48.566;8.846;2023-04-03T09:03:14;3.53;;;2.53;;
29294;SDS011;16305;48.566;8.846;2023-04-03T09:05:43;3.57;;;2.90;;
29294;SDS011;16305;48.566;8.846;2023-04-03T09:11:25;2.97;;;2.40;;
29294;SDS011;16305;48.566;8.846;2023-04-03T09:14:02;2.87;;;2.53;;
29294;SDS011;16305;48.566;8.846;2023-04-03T09:19:27;3.77;;;3.10;;
29294;SDS011;16305;48.566;8.846;2023-04-03T09:22:23;5.37;;;3.40;;
29294;SDS011;16305;48.566;8.846;2023-04-03T09:27:40;4.70;;;3.17;;
29294;SDS011;16305;48.566;8.846;2023-04-03T09:30:06;5.47;;;3.53;;
29294;SDS011;16305;48.566;8.846;2023-04-03T09:32:38;4.90;;;3.50;;
29294;SDS011;16305;48.566;8.846;2023-04-03T09:35:10;4.13;;;3.63;;
29294;SDS011;16305;48.566;8.846;2023-04-03T09:37:52;3.87;;;3.50;;
29294;SDS011;16305;48.566;8.846;2023-04-03T09:40:28;4.83;;;3.57;;
29294;SDS011;16305;48.566;8.846;2023-04-03T09:42:57;6.27;;;3.43;;
29294;SDS011;16305;48.566;8.846;2023-04-03T09:48:06;3.33;;;2.77;;
29294;SDS011;16305;48.566;8.846;2023-04-03T09:50:41;5.97;;;2.80;;
29294;SDS011;16305;48.566;8.846;2023-04-03T09:53:27;4.80;;;3.23;;
29294;SDS011;16305;48.566;8.846;2023-04-03T09:55:53;4.57;;;3.20;;
29294;SDS011;16305;48.566;8.846;2023-04-03T09:58:23;3.27;;;2.77;;
29294;SDS011;16305;48.566;8.846;2023-04-03T10:00:55;5.30;;;2.87;;
29294;SDS011;16305;48.566;8.846;2023-04-03T10:03:30;5.23;;;3.20;;
29294;SDS011;16305;48.566;8.846;2023-04-03T10:06:04;4.00;;;2.77;;
29294;SDS011;16305;48.566;8.846;2023-04-03T10:09:05;3.20;;;2.73;;
29294;SDS011;16305;48.566;8.846;2023-04-03T10:11:44;2.77;;;2.50;;
29294;SDS011;16305;48.566;8.846;2023-04-03T10:14:36;3.30;;;2.70;;
29294;SDS011;16305;48.566;8.846;2023-04-03T10:19:54;3.43;;;2.60;;
29294;SDS011;16305;48.566;8.846;2023-04-03T10:25:29;5.80;;;3.43;;
29294;SDS011;16305;48.566;8.846;2023-04-03T10:30:58;3.27;;;2.97;;
29294;SDS011;16305;48.566;8.846;2023-04-03T10:34:01;4.10;;;3.20;;
29294;SDS011;16305;48.566;8.846;2023-04-03T10:42:29;4.87;;;3.50;;
29294;SDS011;16305;48.566;8.846;2023-04-03T10:53:20;5.27;;;3.20;;
29294;SDS011;16305;48.566;8.846;2023-04-03T10:58:35;4.00;;;3.03;;
29294;SDS011;16305;48.566;8.846;2023-04-03T11:01:21;3.33;;;3.00;;
29294;SDS011;16305;48.566;8.846;2023-04-03T11:03:56;3.93;;;3.00;;
29294;SDS011;16305;48.566;8.846;2023-04-03T11:06:23;3.30;;;2.90;;
29294;SDS011;16305;48.566;8.846;2023-04-03T11:08:53;3.83;;;3.43;;
29294;SDS011;16305;48.566;8.846;2023-04-03T11:11:37;6.27;;;2.97;;
29294;SDS011;16305;48.566;8.846;2023-04-03T11:14:08;3.77;;;2.90;;
29294;SDS011;16305;48.566;8.846;2023-04-03T11:16:40;3.80;;;2.80;;
29294;SDS011;16305;48.566;8.846;2023-04-03T11:19:12;3.37;;;3.07;;
29294;SDS011;16305;48.566;8.846;2023-04-03T11:24:39;6.00;;;3.10;;
29294;SDS011;16305;48.566;8.846;2023-04-03T11:27:09;3.37;;;3.00;;
29294;SDS011;16305;48.566;8.846;2023-04-03T11:29:47;5.67;;;3.50;;
29294;SDS011;16305;48.566;8.846;2023-04-03T11:32:33;2.97;;;2.60;;
29294;SDS011;16305;48.566;8.846;2023-04-03T11:35:29;3.97;;;2.63;;
29294;SDS011;16305;48.566;8.846;2023-04-03T11:37:56;3.17;;;2.87;;
29294;SDS011;16305;48.566;8.846;2023-04-03T11:40:26;3.10;;;2.70;;
29294;SDS011;16305;48.566;8.846;2023-04-03T11:47:56;5.43;;;2.80;;
29294;SDS011;16305;48.566;8.846;2023-04-03T11:50:30;2.87;;;2.40;;
29294;SDS011;16305;48.566;8.846;2023-04-03T11:53:10;4.50;;;2.40;;
29294;SDS011;16305;48.566;8.846;2023-04-03T11:58:19;2.80;;;2.40;;
29294;SDS011;16305;48.566;8.846;2023-04-03T12:00:57;3.50;;;2.50;;
29294;SDS011;16305;48.566;8.846;2023-04-03T12:21:13;3.53;;;2.80;;
29294;SDS011;16305;48.566;8.846;2023-04-03T12:24:03;3.90;;;2.97;;
29294;SDS011;16305;48.566;8.846;2023-04-03T12:34:35;4.43;;;2.80;;
29294;SDS011;16305;48.566;8.846;2023-04-03T12:37:27;4.70;;;2.77;;
29294;SDS011;16305;48.566;8.846;2023-04-03T12:40:09;4.37;;;2.43;;
29294;SDS011;16305;48.566;8.846;2023-04-03T12:45:50;3.23;;;2.00;;
29294;SDS011;16305;48.566;8.846;2023-04-03T12:48:24;5.87;;;2.23;;
29294;SDS011;16305;48.566;8.846;2023-04-03T12:50:52;3.40;;;1.93;;
29294;SDS011;16305;48.566;8.846;2023-04-03T12:53:33;2.80;;;2.40;;
29294;SDS011;16305;48.566;8.846;2023-04-03T12:59:22;6.67;;;1.93;;
29294;SDS011;16305;48.566;8.846;2023-04-03T13:01:56;4.27;;;2.57;;
29294;SDS011;16305;48.566;8.846;2023-04-03T13:04:23;3.20;;;2.40;;
29294;SDS011;16305;48.566;8.846;2023-04-03T13:06:49;3.23;;;2.10;;
29294;SDS011;16305;48.566;8.846;2023-04-03T13:09:29;4.00;;;2.23;;
29294;SDS011;16305;48.566;8.846;2023-04-03T13:12:00;3.97;;;2.30;;
29294;SDS011;16305;48.566;8.846;2023-04-03T13:14:28;4.40;;;2.30;;
29294;SDS011;16305;48.566;8.846;2023-04-03T13:17:06;3.43;;;1.90;;
29294;SDS011;16305;48.566;8.846;2023-04-03T13:19:37;5.47;;;2.00;;
29294;SDS011;16305;48.566;8.846;2023-04-03T13:22:04;2.47;;;2.20;;
29294;SDS011;16305;48.566;8.846;2023-04-03T13:24:34;3.27;;;2.27;;
29294;SDS011;16305;48.566;8.846;2023-04-03T13:27:03;3.70;;;2.27;;
29294;SDS011;16305;48.566;8.846;2023-04-03T13:29:31;2.63;;;2.27;;
29294;SDS011;16305;48.566;8.846;2023-04-03T13:32:03;4.10;;;2.30;;
29294;SDS011;16305;48.566;8.846;2023-04-03T13:34:40;4.33;;;2.47;;
29294;SDS011;16305;48.566;8.846;2023-04-03T13:37:11;3.93;;;2.27;;
29294;SDS011;16305;48.566;8.846;2023-04-03T13:42:37;3.47;;;2.33;;
29294;SDS011;16305;48.566;8.846;2023-04-03T13:45:25;2.73;;;2.37;;
29294;SDS011;16305;48.566;8.846;2023-04-03T13:47:55;4.63;;;2.80;;
29294;SDS011;16305;48.566;8.846;2023-04-03T13:51:00;2.97;;;2.27;;
29294;SDS011;16305;48.566;8.846;2023-04-03T13:53:29;4.57;;;2.20;;
29294;SDS011;16305;48.566;8.846;2023-04-03T13:58:31;3.20;;;2.90;;
29294;SDS011;16305;48.566;8.846;2023-04-03T14:03:39;3.60;;;2.27;;
29294;SDS011;16305;48.566;8.846;2023-04-03T14:06:06;5.17;;;2.70;;
29294;SDS011;16305;48.566;8.846;2023-04-03T14:08:34;2.87;;;2.27;;
29294;SDS011;16305;48.566;8.846;2023-04-03T14:11:00;5.00;;;2.13;;
29294;SDS011;16305;48.566;8.846;2023-04-03T14:13:25;2.40;;;2.20;;
29294;SDS011;16305;48.566;8.846;2023-04-03T14:15:51;3.47;;;2.30;;
29294;SDS011;16305;48.566;8.846;2023-04-03T14:18:18;2.33;;;1.97;;
29294;SDS011;16305;48.566;8.846;2023-04-03T14:20:45;3.23;;;2.30;;
29294;SDS011;16305;48.566;8.846;2023-04-03T14:23:12;2.70;;;2.20;;
29294;SDS011;16305;48.566;8.846;2023-04-03T14:25:38;3.67;;;2.90;;
29294;SDS011;16305;48.566;8.846;2023-04-03T14:28:13;2.77;;;2.00;;
29294;SDS011;16305;48.566;8.846;2023-04-03T14:30:44;5.00;;;2.30;;
29294;SDS011;16305;48.566;8.846;2023-04-03T14:33:12;4.47;;;2.20;;
29294;SDS011;16305;48.566;8.846;2023-04-03T14:35:39;3.53;;;2.40;;
29294;SDS011;16305;48.566;8.846;2023-04-03T14:38:11;3.70;;;2.23;;
29294;SDS011;16305;48.566;8.846;2023-04-03T14:40:49;3.63;;;2.40;;
29294;SDS011;16305;48.566;8.846;2023-04-03T14:43:15;3.97;;;2.60;;
29294;SDS011;16305;48.566;8.846;2023-04-03T14:45:41;3.43;;;2.57;;
29294;SDS011;16305;48.566;8.846;2023-04-03T14:48:09;3.77;;;2.40;;
29294;SDS011;16305;48.566;8.846;2023-04-03T14:50:41;2.70;;;2.43;;
29294;SDS011;16305;48.566;8.846;2023-04-03T14:53:07;3.20;;;2.53;;
29294;SDS011;16305;48.566;8.846;2023-04-03T14:55:34;4.37;;;2.30;;
29294;SDS011;16305;48.566;8.846;2023-04-03T14:58:00;5.40;;;2.50;;
29294;SDS011;16305;48.566;8.846;2023-04-03T15:00:26;3.17;;;2.30;;
29294;SDS011;16305;48.566;8.846;2023-04-03T15:02:52;3.97;;;2.80;;
29294;SDS011;16305;48.566;8.846;2023-04-03T15:05:17;3.10;;;2.30;;
29294;SDS011;16305;48.566;8.846;2023-04-03T15:07:49;4.47;;;2.80;;
29294;SDS011;16305;48.566;8.846;2023-04-03T15:10:19;3.07;;;2.63;;
29294;SDS011;16305;48.566;8.846;2023-04-03T15:12:47;2.60;;;2.40;;
29294;SDS011;16305;48.566;8.846;2023-04-03T15:15:14;3.17;;;2.20;;
29294;SDS011;16305;48.566;8.846;2023-04-03T15:17:40;2.70;;;2.30;;
29294;SDS011;16305;48.566;8.846;2023-04-03T15:20:14;3.07;;;2.73;;
29294;SDS011;16305;48.566;8.846;2023-04-03T15:22:41;3.57;;;2.60;;
29294;SDS011;16305;48.566;8.846;2023-04-03T15:25:08;2.63;;;1.90;;
29294;SDS011;16305;48.566;8.846;2023-04-03T15:27:34;4.07;;;2.60;;
29294;SDS011;16305;48.566;8.846;2023-04-03T15:30:00;5.43;;;2.87;;
29294;SDS011;16305;48.566;8.846;2023-04-03T15:32:26;3.70;;;2.57;;
29294;SDS011;16305;48.566;8.846;2023-04-03T15:34:53;4.07;;;2.80;;
29294;SDS011;16305;48.566;8.846;2023-04-03T15:37:19;4.07;;;2.40;;
29294;SDS011;16305;48.566;8.846;2023-04-03T15:39:44;5.50;;;3.00;;
29294;SDS011;16305;48.566;8.846;2023-04-03T15:42:10;2.53;;;2.33;;
29294;SDS011;16305;48.566;8.846;2023-04-03T15:44:37;3.70;;;2.70;;
29294;SDS011;16305;48.566;8.846;2023-04-03T15:47:03;5.40;;;2.70;;
29294;SDS011;16305;48.566;8.846;2023-04-03T15:49:28;3.10;;;2.53;;
29294;SDS011;16305;48.566;8.846;2023-04-03T15:51:54;5.37;;;2.57;;
29294;SDS011;16305;48.566;8.846;2023-04-03T15:54:20;5.30;;;2.87;;
29294;SDS011;16305;48.566;8.846;2023-04-03T15:56:45;3.30;;;3.00;;
29294;SDS011;16305;48.566;8.846;2023-04-03T15:59:11;2.47;;;2.27;;
29294;SDS011;16305;48.566;8.846;2023-04-03T16:01:37;2.87;;;2.57;;
29294;SDS011;16305;48.566;8.846;2023-04-03T16:04:04;3.80;;;2.50;;
29294;SDS011;16305;48.566;8.846;2023-04-03T16:06:32;3.97;;;2.43;;
29294;SDS011;16305;48.566;8.846;2023-04-03T16:08:58;4.77;;;3.03;;
29294;SDS011;16305;48.566;8.846;2023-04-03T16:11:25;4.43;;;2.57;;
29294;SDS011;16305;48.566;8.846;2023-04-03T16:13:51;6.70;;;2.40;;
29294;SDS011;16305;48.566;8.846;2023-04-03T16:16:17;4.50;;;3.00;;
29294;SDS011;16305;48.566;8.846;2023-04-03T16:18:44;4.37;;;2.70;;
29294;SDS011;16305;48.566;8.846;2023-04-03T16:21:11;2.93;;;2.63;;
29294;SDS011;16305;48.566;8.846;2023-04-03T16:23:38;4.07;;;2.40;;
29294;SDS011;16305;48.566;8.846;2023-04-03T16:26:04;3.67;;;2.40;;
29294;SDS011;16305;48.566;8.846;2023-04-03T16:28:30;5.83;;;3.03;;
29294;SDS011;16305;48.566;8.846;2023-04-03T16:30:55;3.53;;;2.87;;
29294;SDS011;16305;48.566;8.846;2023-04-03T16:33:21;3.17;;;2.40;;
29294;SDS011;16305;48.566;8.846;2023-04-03T16:35:47;2.90;;;2.60;;
29294;SDS011;16305;48.566;8.846;2023-04-03T16:38:14;5.27;;;3.00;;
29294;SDS011;16305;48.566;8.846;2023-04-03T16:40:40;8.20;;;2.60;;
29294;SDS011;16305;48.566;8.846;2023-04-03T16:43:06;3.00;;;2.10;;
29294;SDS011;16305;48.566;8.846;2023-04-03T16:45:32;3.77;;;2.30;;